Tripoli, Greece

11:09 PM EEST on August 25, 2016 (GMT +0300)
Tripolis Airport | | Change Station

Elev 2139 ft 37.53 °N, 22.40 °E | Updated 2 hours ago

Partly Cloudy
Partly Cloudy
71 °F
Feels Like 71 °F
N
12
Wind Variable Wind from North
Gusts mph

Today
High -- | Low -- °F
--% Chance of Precip.
Yesterday
High -- | Low -- °F
Precip. -- in
Pressure 29.93 in
Visibility 6.0 miles
Clouds Few 1969 ft
Scattered Clouds 2953 ft
Dew Point 60 °F
Humidity 61%
Rainfall in
Snow Depth Not available.
6:55 AM 8:09 PM
Last Quarter, 42% visible
AAXX 25184 16710 12560 70110 10218 20158 39399 40134 52010 60002 83860 333 10287 82820 83630 90730 91120 555 10000 40218 30000 10268 20270 30274 40270 50260 60256
Pressure 29.93 in
Visibility 6.0 miles
Clouds Few 1969 ft
Scattered Clouds 2953 ft
Dew Point 60 °F
Humidity 61%
Rainfall in
Snow Depth Not available.
6:55 AM 8:09 PM
Last Quarter, 42% visible
AAXX 25184 16710 12560 70110 10218 20158 39399 40134 52010 60002 83860 333 10287 82820 83630 90730 91120 555 10000 40218 30000 10268 20270 30274 40270 50260 60256

10-Day Weather Forecast

×

Almanac

Astronomy

Aug. 25, 2016 Rise Set
Actual Time
Civil Twilight
Nautical Twilight
Astronomical Twilight
Moon
Length of Visible Light
Length of Day
Tomorrow will be .
, % of the Moon is Illuminated

Today's Extremes

Country Highs Country Lows

Community

WunderPhotos

Upload Photos

1,934,921 photos uploaded!

WunderBlog® & News

Nearby

Air Quality

  Air Quality AQ Index Pollutant
Not available.

Snow Depth

Station Depth Elevation

Earthquake Activity

City Distance Mag. Time & Date
Minimum magnitude displayed is 2.5.

Coastal Water Temperatures

Place Temperature

Stations

Nearby Weather Stations

Station Location Temp. Windchill Dew Point Humidity Wind Precip. Elev Updated Type